Terminal Aerodrome Forecast
Issued by NWS

Home | Current Version | Previous Version | Text Only | Print | Product List | Glossary On
Versions: 1 2 3 4 5 6 7 8 9 10 11 12 13 14 15 16 17 18 19 20 21 22
266
FTUS43 KDVN 230634 AAA
TAFCID
TAF AMD
KCID 230634Z 2307/2406 13011KT 3/4SM -RA BR OVC002
     FM230900 20005KT 3SM BR OVC004
     FM231400 27007KT P6SM OVC010
     FM231700 30010KT P6SM SCT020=

USA.gov is the U.S. government's official web portal to all federal, state and local government web resources and services.